createdAt,value
2018-09-10T00:02:15.960Z,11.37
2018-09-10T00:04:44.498Z,12.13
2018-09-10T00:07:12.981Z,11.63
2018-09-10T00:09:41.508Z,11.07
2018-09-10T00:12:09.954Z,12.03
2018-09-10T00:14:38.419Z,12.00
2018-09-10T00:17:06.877Z,11.97
2018-09-10T00:19:35.359Z,12.03
2018-09-10T00:22:03.801Z,11.43
2018-09-10T00:24:32.301Z,11.87
2018-09-10T00:27:00.745Z,13.20
2018-09-10T00:29:29.199Z,12.03
2018-09-10T00:31:57.625Z,13.70
2018-09-10T00:34:26.071Z,11.40
2018-09-10T00:36:54.527Z,14.43
2018-09-10T00:39:22.965Z,12.77
2018-09-10T00:41:51.415Z,12.97
2018-09-10T00:44:19.869Z,13.50
2018-09-10T00:46:48.283Z,13.50
2018-09-10T00:49:16.733Z,11.97
2018-09-10T00:51:45.187Z,13.20
2018-09-10T00:54:13.622Z,13.30
2018-09-10T00:56:42.035Z,12.93
2018-09-10T00:59:10.522Z,13.90
2018-09-10T01:01:38.966Z,13.67
2018-09-10T01:04:07.401Z,14.57
2018-09-10T01:06:35.889Z,13.83
2018-09-10T01:09:06.019Z,14.00
2018-09-10T01:11:34.467Z,15.03
2018-09-10T01:14:02.922Z,14.57
2018-09-10T01:16:31.356Z,13.60
2018-09-10T01:18:59.799Z,13.50
2018-09-10T01:21:28.297Z,13.63
2018-09-10T01:23:56.756Z,14.07
2018-09-10T01:26:25.201Z,13.97
2018-09-10T01:28:53.658Z,14.97
2018-09-10T01:31:22.104Z,14.40
2018-09-10T01:33:55.974Z,15.23
2018-09-10T01:36:24.401Z,14.30
2018-09-10T01:38:52.824Z,14.97
2018-09-10T01:41:21.270Z,15.47
2018-09-10T01:43:49.702Z,15.33
2018-09-10T01:46:18.126Z,15.33
2018-09-10T01:48:46.542Z,14.70
2018-09-10T01:51:14.986Z,15.17
2018-09-10T01:53:43.498Z,14.43
2018-09-10T01:56:11.954Z,15.40
2018-09-10T01:58:40.710Z,15.20
2018-09-10T02:01:09.182Z,14.97
2018-09-10T02:03:37.600Z,14.23
2018-09-10T02:06:06.059Z,14.60
2018-09-10T02:08:34.524Z,14.93
2018-09-10T02:11:02.989Z,14.37
2018-09-10T02:13:31.427Z,16.20
2018-09-10T02:15:59.839Z,15.80
2018-09-10T02:18:28.275Z,15.20
2018-09-10T02:20:56.752Z,13.93
2018-09-10T02:23:25.225Z,14.60
2018-09-10T02:25:53.717Z,15.23
2018-09-10T02:28:22.182Z,14.80
2018-09-10T02:30:50.629Z,15.13
2018-09-10T02:33:19.107Z,14.83
2018-09-10T02:35:47.579Z,15.23
2018-09-10T02:38:16.034Z,14.93
2018-09-10T02:40:44.501Z,14.60
2018-09-10T02:43:12.977Z,15.77
2018-09-10T02:45:41.437Z,14.70
2018-09-10T02:48:09.885Z,15.47
2018-09-10T02:50:38.295Z,15.63
2018-09-10T02:53:06.719Z,15.10
2018-09-10T02:55:35.162Z,15.27
2018-09-10T02:58:03.663Z,15.27
2018-09-10T03:00:32.088Z,15.07
2018-09-10T03:03:00.525Z,15.30
2018-09-10T03:05:29.001Z,14.70
2018-09-10T03:07:57.411Z,16.17
2018-09-10T03:10:25.844Z,15.37
2018-09-10T03:12:55.047Z,15.67
2018-09-10T03:15:23.632Z,14.97
2018-09-10T03:17:52.599Z,15.63
2018-09-10T03:20:21.215Z,16.03
2018-09-10T03:22:49.681Z,16.30
2018-09-10T03:25:18.176Z,17.60
2018-09-10T03:27:46.644Z,17.50
2018-09-10T03:30:15.070Z,15.83
2018-09-10T03:32:43.522Z,16.73
2018-09-10T03:35:12.048Z,16.87
2018-09-10T03:37:40.518Z,16.57
2018-09-10T03:40:09.042Z,17.40
2018-09-10T03:42:37.531Z,17.13
2018-09-10T03:45:06.833Z,17.63
2018-09-10T03:47:35.243Z,18.03
2018-09-10T03:50:03.755Z,17.50
2018-09-10T03:52:32.206Z,17.90
2018-09-10T03:55:00.639Z,17.07
2018-09-10T03:57:29.100Z,16.83
2018-09-10T03:59:57.513Z,16.13
2018-09-10T04:02:25.969Z,16.63
2018-09-10T04:04:54.431Z,16.67
2018-09-10T04:07:22.853Z,16.90
2018-09-10T04:09:51.285Z,17.03
2018-09-10T04:12:19.692Z,16.47
2018-09-10T04:14:48.175Z,17.67
2018-09-10T04:17:16.683Z,17.73
2018-09-10T04:19:45.084Z,17.23
2018-09-10T04:22:13.499Z,17.23
2018-09-10T04:24:41.947Z,16.60
2018-09-10T04:27:10.422Z,17.70
2018-09-10T04:29:38.863Z,18.17
2018-09-10T04:32:07.320Z,18.10
2018-09-10T04:34:35.767Z,17.53
2018-09-10T04:37:04.258Z,18.17
2018-09-10T04:39:32.687Z,17.30
2018-09-10T04:42:01.147Z,18.57
2018-09-10T04:44:29.619Z,17.00
2018-09-10T04:46:58.049Z,16.50
2018-09-10T04:49:27.629Z,18.40
2018-09-10T04:52:00.039Z,17.27
2018-09-10T04:54:28.505Z,17.43
2018-09-10T04:56:56.989Z,16.63
2018-09-10T04:59:25.451Z,17.63
2018-09-10T05:01:53.890Z,16.13
2018-09-10T05:04:22.457Z,18.10
2018-09-10T05:06:51.065Z,17.47
2018-09-10T05:09:19.976Z,16.63
2018-09-10T05:11:49.160Z,17.03
2018-09-10T05:14:17.867Z,18.97
2018-09-10T05:16:46.378Z,18.33
2018-09-10T05:19:16.996Z,18.83
2018-09-10T05:21:48.139Z,19.07
2018-09-10T05:24:16.521Z,19.13
2018-09-10T05:26:44.946Z,19.83
2018-09-10T05:29:13.820Z,20.13
2018-09-10T05:31:43.719Z,18.53
2018-09-10T05:34:13.025Z,18.57
2018-09-10T05:36:43.689Z,19.40
2018-09-10T05:39:13.893Z,20.13
2018-09-10T05:41:42.421Z,18.73
2018-09-10T05:44:11.066Z,19.60
2018-09-10T05:46:39.624Z,17.90
2018-09-10T05:49:08.061Z,19.80
2018-09-10T05:51:36.628Z,19.63
2018-09-10T05:54:05.112Z,19.90
2018-09-10T05:56:33.614Z,19.37
2018-09-10T05:59:02.025Z,19.07
2018-09-10T06:01:30.455Z,19.70
2018-09-10T06:03:58.919Z,18.73
2018-09-10T06:06:27.526Z,19.40
2018-09-10T06:08:55.958Z,19.80
2018-09-10T06:11:24.399Z,18.23
2018-09-10T06:13:52.949Z,17.33
2018-09-10T06:16:21.522Z,17.87
2018-09-10T06:18:50.023Z,17.77
2018-09-10T06:21:18.486Z,17.13
2018-09-10T06:23:46.927Z,17.13
2018-09-10T06:26:15.397Z,16.07
2018-09-10T06:28:43.857Z,15.97
2018-09-10T06:31:12.339Z,15.43
2018-09-10T06:33:40.805Z,15.67
2018-09-10T06:36:09.321Z,16.07
2018-09-10T06:38:37.807Z,15.40
2018-09-10T06:41:06.471Z,15.03
2018-09-10T06:43:35.010Z,14.73
2018-09-10T06:46:03.436Z,15.40
2018-09-10T06:48:35.278Z,16.47
2018-09-10T06:51:05.658Z,16.77
2018-09-10T06:53:34.211Z,15.93
2018-09-10T06:56:03.995Z,15.47
2018-09-10T06:58:32.672Z,15.23
2018-09-10T07:01:01.218Z,13.90
2018-09-10T07:03:29.653Z,14.03
2018-09-10T07:05:58.172Z,13.63
2018-09-10T07:08:26.576Z,13.57
2018-09-10T07:10:55.024Z,14.30
2018-09-10T07:13:23.932Z,13.03
2018-09-10T07:15:52.458Z,12.97
2018-09-10T07:18:20.922Z,13.30
2018-09-10T07:20:49.397Z,12.13
2018-09-10T07:23:17.837Z,12.77
2018-09-10T07:25:46.274Z,12.13
2018-09-10T07:28:14.723Z,10.17
2018-09-10T07:30:43.223Z,10.87
2018-09-10T07:33:11.798Z,10.33
2018-09-10T07:35:40.862Z,9.50
2018-09-10T07:38:09.375Z,10.00
2018-09-10T07:40:37.837Z,9.27
2018-09-10T07:43:06.287Z,10.53
2018-09-10T07:45:34.770Z,9.70
2018-09-10T07:48:03.245Z,9.73
2018-09-10T07:50:31.687Z,9.70
2018-09-10T07:53:00.171Z,10.53
2018-09-10T07:55:28.638Z,9.70
2018-09-10T07:57:57.132Z,9.17
2018-09-10T08:00:25.569Z,8.53
2018-09-10T08:02:54.017Z,9.10
2018-09-10T08:05:22.556Z,8.17
2018-09-10T08:07:51.190Z,7.30
2018-09-10T08:10:19.661Z,6.87
2018-09-10T08:12:48.151Z,6.33
2018-09-10T08:15:16.699Z,7.00
2018-09-10T08:17:45.185Z,7.73
2018-09-10T08:20:13.699Z,6.80
2018-09-10T08:22:42.126Z,6.63
2018-09-10T08:25:10.635Z,7.53
2018-09-10T08:27:39.015Z,7.20
2018-09-10T08:30:07.880Z,7.23
2018-09-10T08:32:36.413Z,6.37
2018-09-10T08:35:04.912Z,6.80
2018-09-10T08:37:33.444Z,6.20
2018-09-10T08:40:01.902Z,5.97
2018-09-10T08:42:30.370Z,6.80
2018-09-10T08:44:58.899Z,5.60
2018-09-10T08:47:27.354Z,4.50
2018-09-10T08:49:55.861Z,4.30
2018-09-10T08:52:24.344Z,4.03
2018-09-10T08:54:53.065Z,3.73
2018-09-10T08:57:21.286Z,3.33
2018-09-10T08:59:49.740Z,3.23
2018-09-10T09:02:18.202Z,3.13
2018-09-10T09:04:46.634Z,2.97
2018-09-10T09:07:15.098Z,3.20
2018-09-10T09:09:43.570Z,3.40
2018-09-10T09:12:12.030Z,2.73
2018-09-10T09:14:40.497Z,2.10
2018-09-10T09:17:08.947Z,2.70
2018-09-10T09:19:37.406Z,3.13
2018-09-10T09:22:05.882Z,3.23
2018-09-10T09:24:34.319Z,2.50
2018-09-10T09:27:02.736Z,2.33
2018-09-10T09:29:31.203Z,2.30
2018-09-10T09:31:59.645Z,3.20
2018-09-10T09:34:32.321Z,2.13
2018-09-10T09:37:06.059Z,2.47
2018-09-10T09:39:39.966Z,2.20
2018-09-10T09:42:13.968Z,2.17
2018-09-10T09:45:51.539Z,2.00
2018-09-10T09:48:20.009Z,2.80
2018-09-10T09:50:48.526Z,2.43
2018-09-10T09:53:17.099Z,2.57
2018-09-10T09:55:45.672Z,3.00
2018-09-10T09:58:14.108Z,2.40
2018-09-10T10:00:47.824Z,3.00
2018-09-10T10:03:18.313Z,2.37
2018-09-10T10:05:46.766Z,3.20
2018-09-10T10:08:15.210Z,2.63
2018-09-10T10:10:43.657Z,3.17
2018-09-10T10:13:12.082Z,2.50
2018-09-10T10:15:40.546Z,2.53
2018-09-10T10:18:08.990Z,2.90
2018-09-10T10:20:37.458Z,2.43
2018-09-10T10:23:05.951Z,2.57
2018-09-10T10:25:34.561Z,2.80
2018-09-10T10:28:03.053Z,2.50
2018-09-10T10:30:31.452Z,2.70
2018-09-10T10:32:59.906Z,2.10
2018-09-10T10:35:28.326Z,2.50
2018-09-10T10:37:56.791Z,3.20
2018-09-10T10:40:25.284Z,2.60
2018-09-10T10:42:53.724Z,2.70
2018-09-10T10:45:22.179Z,2.40
2018-09-10T10:47:50.610Z,2.73
2018-09-10T10:50:19.074Z,2.40
2018-09-10T10:52:47.524Z,3.07
2018-09-10T10:55:16.014Z,2.90
2018-09-10T10:57:44.470Z,2.90
2018-09-10T11:00:12.930Z,2.43
2018-09-10T11:02:41.368Z,2.60
2018-09-10T11:05:09.802Z,2.73
2018-09-10T11:07:38.245Z,2.60
2018-09-10T11:10:07.592Z,3.33
2018-09-10T11:12:36.061Z,2.30
2018-09-10T11:15:04.831Z,2.50
2018-09-10T11:17:33.269Z,2.80
2018-09-10T11:20:01.733Z,3.03
2018-09-10T11:22:30.161Z,2.60
2018-09-10T11:24:58.635Z,3.10
2018-09-10T11:27:27.095Z,3.00
2018-09-10T11:29:55.521Z,2.80
2018-09-10T11:32:24.025Z,2.67
2018-09-10T11:34:52.484Z,3.30
2018-09-10T11:37:20.997Z,2.57
2018-09-10T11:39:49.490Z,2.43
2018-09-10T11:42:17.967Z,3.17
2018-09-10T11:44:46.379Z,2.47
2018-09-10T11:47:14.817Z,3.00
2018-09-10T11:49:43.365Z,2.33
2018-09-10T11:52:11.814Z,2.40
2018-09-10T11:54:40.272Z,2.73
2018-09-10T11:57:08.730Z,2.80
2018-09-10T11:59:37.168Z,2.67
2018-09-10T12:02:06.901Z,2.60
2018-09-10T12:04:35.270Z,3.17
2018-09-10T12:07:03.773Z,2.67
2018-09-10T12:09:32.902Z,2.37
2018-09-10T12:12:01.345Z,2.57
2018-09-10T12:14:29.818Z,3.07
2018-09-10T12:16:58.245Z,2.50
2018-09-10T12:19:26.699Z,2.53
2018-09-10T12:21:55.145Z,3.20
2018-09-10T12:24:23.593Z,3.10
2018-09-10T12:26:52.026Z,2.47
2018-09-10T12:29:20.457Z,3.40
2018-09-10T12:31:48.897Z,3.13
2018-09-10T12:34:17.317Z,3.33
2018-09-10T12:36:45.759Z,3.40
2018-09-10T12:39:14.170Z,2.97
2018-09-10T12:41:42.652Z,3.23
2018-09-10T12:44:11.082Z,2.53
2018-09-10T12:46:39.588Z,2.70
2018-09-10T12:49:07.955Z,3.30
2018-09-10T12:51:36.395Z,3.67
2018-09-10T12:54:04.931Z,3.33
2018-09-10T12:56:33.352Z,2.83
2018-09-10T12:59:01.816Z,3.27
2018-09-10T13:01:30.258Z,3.70
2018-09-10T13:04:05.238Z,2.93
2018-09-10T13:06:33.736Z,3.17
2018-09-10T13:09:02.192Z,2.60
2018-09-10T13:11:30.738Z,2.10
2018-09-10T13:13:59.186Z,2.67
2018-09-10T13:16:27.675Z,2.30
2018-09-10T13:18:56.106Z,2.57
2018-09-10T13:21:31.188Z,2.20
2018-09-10T13:23:59.618Z,2.23
2018-09-10T13:26:28.044Z,2.30
2018-09-10T13:28:56.492Z,2.60
2018-09-10T13:31:24.966Z,3.07
2018-09-10T13:33:53.414Z,2.77
2018-09-10T13:36:21.885Z,2.17
2018-09-10T13:38:50.324Z,2.23
2018-09-10T13:41:18.770Z,2.63
2018-09-10T13:43:47.181Z,2.77
2018-09-10T13:46:15.679Z,2.60
2018-09-10T13:48:44.160Z,2.20
2018-09-10T13:51:12.612Z,2.20
2018-09-10T13:53:41.050Z,2.60
2018-09-10T13:56:09.469Z,2.57
2018-09-10T13:58:37.927Z,2.63
2018-09-10T14:01:06.357Z,2.23
2018-09-10T14:03:34.810Z,1.70
2018-09-10T14:06:03.295Z,2.12
2018-09-10T14:08:31.732Z,2.22
2018-09-10T14:11:00.161Z,1.90
2018-09-10T14:13:28.613Z,2.30
2018-09-10T14:15:57.064Z,2.27
2018-09-10T14:18:25.502Z,2.07
2018-09-10T14:20:54.056Z,2.30
2018-09-10T14:23:22.566Z,2.07
2018-09-10T14:25:51.201Z,2.20
2018-09-10T14:28:19.675Z,2.10
2018-09-10T14:30:48.136Z,1.60
2018-09-10T14:33:16.584Z,1.83
2018-09-10T14:35:45.078Z,1.82
2018-09-10T14:38:13.533Z,1.98
2018-09-10T14:40:41.986Z,1.80
2018-09-10T14:43:10.713Z,1.60
2018-09-10T14:45:39.082Z,2.03
2018-09-10T14:48:07.532Z,1.57
2018-09-10T14:50:36.045Z,1.57
2018-09-10T14:53:04.492Z,2.00
2018-09-10T14:55:33.735Z,1.90
2018-09-10T14:58:02.163Z,1.80
2018-09-10T15:00:30.692Z,1.90
2018-09-10T15:02:59.176Z,1.47
2018-09-10T15:05:27.646Z,1.70
2018-09-10T15:07:56.088Z,2.13
2018-09-10T15:10:24.550Z,1.87
2018-09-10T15:12:52.997Z,1.97
2018-09-10T15:15:21.476Z,1.90
2018-09-10T15:17:49.965Z,1.97
2018-09-10T15:20:18.439Z,2.03
2018-09-10T15:22:46.885Z,1.67
2018-09-10T15:25:15.327Z,1.80
2018-09-10T15:27:43.759Z,1.73
2018-09-10T15:30:12.206Z,2.00
2018-09-10T15:32:40.662Z,1.90
2018-09-10T15:35:09.088Z,1.70
2018-09-10T15:37:37.535Z,1.80
2018-09-10T15:40:06.106Z,1.80
2018-09-10T15:42:34.555Z,1.83
2018-09-10T15:45:03.321Z,1.50
2018-09-10T15:47:31.783Z,1.60
2018-09-10T15:50:00.242Z,2.00
2018-09-10T15:52:28.685Z,1.83
2018-09-10T15:54:57.125Z,1.30
2018-09-10T15:57:25.644Z,1.60
2018-09-10T15:59:54.138Z,2.10
2018-09-10T16:02:22.688Z,2.00
2018-09-10T16:04:51.293Z,2.40
2018-09-10T16:07:19.858Z,1.90
2018-09-10T16:09:48.277Z,2.20
2018-09-10T16:12:16.825Z,2.20
2018-09-10T16:14:45.664Z,2.10
2018-09-10T16:17:14.182Z,2.00
2018-09-10T16:19:42.621Z,2.07
2018-09-10T16:22:11.042Z,2.27
2018-09-10T16:24:39.498Z,2.40
2018-09-10T16:27:08.042Z,2.17
2018-09-10T16:29:36.489Z,2.10
2018-09-10T16:32:04.960Z,2.30
2018-09-10T16:34:33.404Z,2.30
2018-09-10T16:37:01.915Z,2.20
2018-09-10T16:39:30.432Z,1.80
2018-09-10T16:41:58.989Z,2.00
2018-09-10T16:44:27.604Z,2.10
2018-09-10T16:47:01.291Z,1.60
2018-09-10T16:49:29.889Z,1.93
2018-09-10T16:51:58.395Z,2.27
2018-09-10T16:54:29.540Z,1.87
2018-09-10T16:56:58.442Z,2.13
2018-09-10T16:59:26.923Z,1.67
2018-09-10T17:01:55.449Z,2.00
2018-09-10T17:04:23.925Z,2.00
2018-09-10T17:06:52.370Z,1.90
2018-09-10T17:09:20.918Z,2.33
2018-09-10T17:11:49.399Z,2.20
2018-09-10T17:14:17.876Z,2.37
2018-09-10T17:16:46.379Z,1.70
2018-09-10T17:19:14.895Z,1.60
2018-09-10T17:21:43.405Z,1.70
2018-09-10T17:24:11.912Z,1.90
2018-09-10T17:26:40.425Z,1.80
2018-09-10T17:29:09.941Z,1.73
2018-09-10T17:31:41.744Z,1.80
2018-09-10T17:34:10.559Z,1.93
2018-09-10T17:36:41.290Z,2.17
2018-09-10T17:39:09.770Z,1.90
2018-09-10T17:41:38.247Z,1.63
2018-09-10T17:44:08.519Z,2.10
2018-09-10T17:46:38.791Z,2.37
2018-09-10T17:49:07.302Z,1.67
2018-09-10T17:51:35.799Z,2.10
2018-09-10T17:54:04.230Z,2.20
2018-09-10T17:56:32.764Z,2.20
2018-09-10T17:59:01.303Z,2.20
2018-09-10T18:01:29.943Z,3.00
2018-09-10T18:03:58.411Z,2.40
2018-09-10T18:06:26.857Z,2.77
2018-09-10T18:08:55.273Z,2.43
2018-09-10T18:11:23.757Z,2.50
2018-09-10T18:13:52.192Z,2.80
2018-09-10T18:16:20.638Z,2.17
2018-09-10T18:18:49.190Z,2.87
2018-09-10T18:21:17.638Z,2.20
2018-09-10T18:23:46.123Z,2.63
2018-09-10T18:26:14.591Z,2.30
2018-09-10T18:28:43.058Z,2.40
2018-09-10T18:31:11.506Z,2.20
2018-09-10T18:33:40.117Z,2.50
2018-09-10T18:36:08.661Z,2.60
2018-09-10T18:38:37.251Z,2.57
2018-09-10T18:41:05.803Z,2.40
2018-09-10T18:43:34.253Z,2.40
2018-09-10T18:46:02.723Z,2.50
2018-09-10T18:48:31.245Z,2.80
2018-09-10T18:50:59.753Z,2.50
2018-09-10T18:53:28.247Z,2.83
2018-09-10T18:55:56.713Z,2.53
2018-09-10T18:58:25.199Z,2.73
2018-09-10T19:00:53.624Z,2.50
2018-09-10T19:03:22.082Z,2.93
2018-09-10T19:05:50.533Z,2.57
2018-09-10T19:08:19.047Z,2.57
2018-09-10T19:10:47.569Z,2.17
2018-09-10T19:13:16.039Z,2.70
2018-09-10T19:15:44.537Z,2.50
2018-09-10T19:18:13.010Z,2.50
2018-09-10T19:20:41.491Z,2.43
2018-09-10T19:23:09.985Z,3.27
2018-09-10T19:25:38.416Z,2.60
2018-09-10T19:28:06.894Z,3.17
2018-09-10T19:30:35.336Z,2.63
2018-09-10T19:33:03.826Z,2.63
2018-09-10T19:35:32.278Z,2.47
2018-09-10T19:38:00.739Z,2.90
2018-09-10T19:40:29.240Z,2.43
2018-09-10T19:42:57.724Z,3.13
2018-09-10T19:45:26.165Z,2.53
2018-09-10T19:47:54.636Z,2.80
2018-09-10T19:50:23.099Z,3.03
2018-09-10T19:52:51.576Z,3.10
2018-09-10T19:55:20.087Z,2.73
2018-09-10T19:57:48.566Z,3.90
2018-09-10T20:00:17.014Z,3.47
2018-09-10T20:02:45.528Z,3.10
2018-09-10T20:05:14.004Z,4.07
2018-09-10T20:07:42.496Z,3.43
2018-09-10T20:10:10.993Z,3.97
2018-09-10T20:12:39.530Z,4.37
2018-09-10T20:15:08.161Z,4.13
2018-09-10T20:17:36.582Z,3.90
2018-09-10T20:20:05.913Z,4.00
2018-09-10T20:22:34.365Z,4.10
2018-09-10T20:25:02.961Z,4.10
2018-09-10T20:27:31.701Z,4.47
2018-09-10T20:30:00.187Z,4.87
2018-09-10T20:32:28.660Z,4.40
2018-09-10T20:34:57.103Z,4.67
2018-09-10T20:37:25.546Z,4.57
2018-09-10T20:39:53.972Z,4.10
2018-09-10T20:42:22.448Z,4.00
2018-09-10T20:44:50.896Z,4.37
2018-09-10T20:47:19.353Z,4.53
2018-09-10T20:49:47.900Z,4.27
2018-09-10T20:52:16.468Z,4.90
2018-09-10T20:54:44.970Z,5.20
2018-09-10T20:57:13.395Z,5.07
2018-09-10T20:59:41.860Z,5.17
2018-09-10T21:02:10.298Z,4.47
2018-09-10T21:04:38.757Z,5.17
2018-09-10T21:07:07.203Z,4.50
2018-09-10T21:09:35.618Z,5.07
2018-09-10T21:12:04.133Z,5.00
2018-09-10T21:14:32.592Z,5.33
2018-09-10T21:17:01.016Z,5.27
2018-09-10T21:19:29.469Z,4.53
2018-09-10T21:21:57.948Z,5.10
2018-09-10T21:24:26.354Z,4.73
2018-09-10T21:26:54.778Z,5.40
2018-09-10T21:29:23.235Z,5.50
2018-09-10T21:31:51.696Z,5.73
2018-09-10T21:34:20.131Z,5.03
2018-09-10T21:36:48.578Z,5.63
2018-09-10T21:39:17.026Z,6.17
2018-09-10T21:41:45.467Z,6.53
2018-09-10T21:44:13.914Z,5.73
2018-09-10T21:46:42.367Z,6.20
2018-09-10T21:49:10.824Z,6.40
2018-09-10T21:51:39.289Z,6.20
2018-09-10T21:54:07.753Z,6.33
2018-09-10T21:56:36.206Z,6.80
2018-09-10T21:59:04.635Z,6.30
2018-09-10T22:01:33.064Z,5.73
2018-09-10T22:04:01.502Z,6.20
2018-09-10T22:06:29.941Z,6.77
2018-09-10T22:08:58.412Z,6.27
2018-09-10T22:11:26.849Z,6.63
2018-09-10T22:13:55.341Z,6.30
2018-09-10T22:16:23.802Z,6.93
2018-09-10T22:18:52.244Z,7.03
2018-09-10T22:21:20.685Z,7.33
2018-09-10T22:23:49.130Z,7.43
2018-09-10T22:26:17.561Z,7.87
2018-09-10T22:28:46.026Z,8.23
2018-09-10T22:31:14.451Z,7.53
2018-09-10T22:33:42.905Z,7.73
2018-09-10T22:36:11.384Z,8.20
2018-09-10T22:38:39.818Z,7.97
2018-09-10T22:41:08.253Z,7.83
2018-09-10T22:43:36.749Z,7.27
2018-09-10T22:46:05.198Z,7.90
2018-09-10T22:48:33.620Z,7.53
2018-09-10T22:51:02.089Z,7.30
2018-09-10T22:53:30.538Z,6.70
2018-09-10T22:55:58.955Z,6.77
2018-09-10T22:58:27.402Z,6.90
2018-09-10T23:00:55.875Z,6.77
2018-09-10T23:03:24.422Z,6.83
2018-09-10T23:05:52.879Z,7.10
2018-09-10T23:08:21.306Z,6.50
2018-09-10T23:10:49.740Z,6.30
2018-09-10T23:13:18.190Z,6.23
2018-09-10T23:15:46.622Z,6.70
2018-09-10T23:18:15.078Z,7.63
2018-09-10T23:20:43.514Z,6.73
2018-09-10T23:23:11.924Z,6.70
2018-09-10T23:25:40.360Z,7.10
2018-09-10T23:28:08.822Z,7.37
2018-09-10T23:30:37.301Z,6.53
2018-09-10T23:33:05.785Z,7.00
2018-09-10T23:35:34.217Z,7.00
2018-09-10T23:38:02.693Z,7.20
2018-09-10T23:40:31.137Z,6.33
2018-09-10T23:42:59.597Z,5.93
2018-09-10T23:45:28.039Z,6.40
2018-09-10T23:47:56.450Z,6.10
2018-09-10T23:50:24.905Z,5.67
2018-09-10T23:52:53.321Z,5.97
2018-09-10T23:55:21.798Z,5.77
2018-09-10T23:57:50.219Z,5.87
